sensor_id;sensor_type;location;lat;lon;timestamp;temperature;humidity
1704;DHT22;849;48.780;9.216;2024-01-15T00:02:29;1.40;99.00
1704;DHT22;849;48.780;9.216;2024-01-15T00:05:13;1.40;99.00
1704;DHT22;849;48.780;9.216;2024-01-15T00:07:58;1.40;98.60
1704;DHT22;849;48.780;9.216;2024-01-15T00:10:42;1.50;98.40
1704;DHT22;849;48.780;9.216;2024-01-15T00:13:26;1.50;98.20
1704;DHT22;849;48.780;9.216;2024-01-15T00:16:10;1.60;98.10
1704;DHT22;849;48.780;9.216;2024-01-15T00:18:55;1.50;97.40
1704;DHT22;849;48.780;9.216;2024-01-15T00:21:39;1.50;97.70
1704;DHT22;849;48.780;9.216;2024-01-15T00:24:24;1.50;97.10
1704;DHT22;849;48.780;9.216;2024-01-15T00:27:08;1.40;97.00
1704;DHT22;849;48.780;9.216;2024-01-15T00:29:52;1.30;97.10
1704;DHT22;849;48.780;9.216;2024-01-15T00:32:36;1.10;97.50
1704;DHT22;849;48.780;9.216;2024-01-15T00:35:20;1.00;98.10
1704;DHT22;849;48.780;9.216;2024-01-15T00:38:04;1.10;98.20
1704;DHT22;849;48.780;9.216;2024-01-15T00:40:49;1.10;98.00
1704;DHT22;849;48.780;9.216;2024-01-15T00:43:33;1.20;98.10
1704;DHT22;849;48.780;9.216;2024-01-15T00:46:17;1.20;98.10
1704;DHT22;849;48.780;9.216;2024-01-15T00:49:01;1.20;98.10
1704;DHT22;849;48.780;9.216;2024-01-15T00:51:45;1.10;98.10
1704;DHT22;849;48.780;9.216;2024-01-15T00:54:29;1.20;98.40
1704;DHT22;849;48.780;9.216;2024-01-15T00:57:14;1.20;98.40
1704;DHT22;849;48.780;9.216;2024-01-15T02:05:29;1.20;99.90
1704;DHT22;849;48.780;9.216;2024-01-15T02:08:14;1.20;99.90
1704;DHT22;849;48.780;9.216;2024-01-15T02:10:58;1.10;99.90
1704;DHT22;849;48.780;9.216;2024-01-15T02:13:42;1.00;99.90
1704;DHT22;849;48.780;9.216;2024-01-15T02:16:27;1.10;99.90
1704;DHT22;849;48.780;9.216;2024-01-15T02:19:14;1.20;99.90
1704;DHT22;849;48.780;9.216;2024-01-15T02:21:59;1.20;99.90
1704;DHT22;849;48.780;9.216;2024-01-15T02:24:43;1.20;99.90
1704;DHT22;849;48.780;9.216;2024-01-15T02:27:27;1.30;99.90
1704;DHT22;849;48.780;9.216;2024-01-15T02:30:12;1.30;99.90
1704;DHT22;849;48.780;9.216;2024-01-15T02:32:56;1.30;99.90
1704;DHT22;849;48.780;9.216;2024-01-15T02:35:40;1.20;99.90
1704;DHT22;849;48.780;9.216;2024-01-15T02:38:24;1.30;99.90
1704;DHT22;849;48.780;9.216;2024-01-15T02:41:08;1.30;99.90
1704;DHT22;849;48.780;9.216;2024-01-15T02:43:53;1.40;99.90
1704;DHT22;849;48.780;9.216;2024-01-15T02:46:37;1.40;99.90
1704;DHT22;849;48.780;9.216;2024-01-15T02:49:21;1.50;99.90
1704;DHT22;849;48.780;9.216;2024-01-15T02:52:05;1.50;99.90
1704;DHT22;849;48.780;9.216;2024-01-15T02:54:50;1.60;99.90
1704;DHT22;849;48.780;9.216;2024-01-15T02:57:34;1.60;99.90
1704;DHT22;849;48.780;9.216;2024-01-15T03:00:19;1.50;99.90
1704;DHT22;849;48.780;9.216;2024-01-15T03:03:03;1.50;99.90
1704;DHT22;849;48.780;9.216;2024-01-15T03:05:47;1.50;99.90
1704;DHT22;849;48.780;9.216;2024-01-15T03:08:31;1.60;99.90
1704;DHT22;849;48.780;9.216;2024-01-15T03:11:16;1.60;99.90
1704;DHT22;849;48.780;9.216;2024-01-15T03:14:00;1.60;99.90
1704;DHT22;849;48.780;9.216;2024-01-15T03:16:44;1.50;99.90
1704;DHT22;849;48.780;9.216;2024-01-15T03:19:28;1.50;99.90
1704;DHT22;849;48.780;9.216;2024-01-15T03:22:12;1.50;99.90
1704;DHT22;849;48.780;9.216;2024-01-15T03:24:57;1.50;99.90
1704;DHT22;849;48.780;9.216;2024-01-15T03:27:41;1.60;99.90
1704;DHT22;849;48.780;9.216;2024-01-15T03:30:25;1.50;99.90
1704;DHT22;849;48.780;9.216;2024-01-15T03:33:10;1.40;99.90
1704;DHT22;849;48.780;9.216;2024-01-15T03:35:54;1.30;99.90
1704;DHT22;849;48.780;9.216;2024-01-15T03:38:40;1.30;99.90
1704;DHT22;849;48.780;9.216;2024-01-15T03:41:25;1.30;99.90
1704;DHT22;849;48.780;9.216;2024-01-15T03:44:09;1.30;99.90
1704;DHT22;849;48.780;9.216;2024-01-15T03:46:53;1.30;99.90
1704;DHT22;849;48.780;9.216;2024-01-15T03:49:37;1.40;99.90
1704;DHT22;849;48.780;9.216;2024-01-15T03:52:22;1.40;99.90
1704;DHT22;849;48.780;9.216;2024-01-15T03:55:06;1.30;99.90
1704;DHT22;849;48.780;9.216;2024-01-15T03:57:50;1.30;99.90
1704;DHT22;849;48.780;9.216;2024-01-15T04:00:34;1.30;99.90
1704;DHT22;849;48.780;9.216;2024-01-15T04:03:18;1.30;99.90
1704;DHT22;849;48.780;9.216;2024-01-15T04:06:03;1.30;99.90
1704;DHT22;849;48.780;9.216;2024-01-15T04:08:47;1.30;99.90
1704;DHT22;849;48.780;9.216;2024-01-15T04:11:31;1.30;99.90
1704;DHT22;849;48.780;9.216;2024-01-15T04:14:16;1.30;99.90
1704;DHT22;849;48.780;9.216;2024-01-15T04:17:00;1.40;99.90
1704;DHT22;849;48.780;9.216;2024-01-15T04:19:44;1.30;99.90
1704;DHT22;849;48.780;9.216;2024-01-15T04:22:28;1.40;99.90
1704;DHT22;849;48.780;9.216;2024-01-15T04:25:13;1.40;99.90
1704;DHT22;849;48.780;9.216;2024-01-15T04:27:57;1.50;99.90
1704;DHT22;849;48.780;9.216;2024-01-15T04:30:41;1.50;99.90
1704;DHT22;849;48.780;9.216;2024-01-15T04:33:25;1.60;99.90
1704;DHT22;849;48.780;9.216;2024-01-15T04:36:09;1.60;99.90
1704;DHT22;849;48.780;9.216;2024-01-15T04:38:53;1.60;99.90
1704;DHT22;849;48.780;9.216;2024-01-15T04:41:38;1.60;99.90
1704;DHT22;849;48.780;9.216;2024-01-15T04:44:22;1.70;99.90
1704;DHT22;849;48.780;9.216;2024-01-15T04:47:06;1.70;99.90
1704;DHT22;849;48.780;9.216;2024-01-15T04:49:51;1.70;99.90
1704;DHT22;849;48.780;9.216;2024-01-15T04:52:35;1.70;99.90
1704;DHT22;849;48.780;9.216;2024-01-15T04:55:20;1.70;99.90
1704;DHT22;849;48.780;9.216;2024-01-15T04:58:04;1.80;99.90
1704;DHT22;849;48.780;9.216;2024-01-15T05:00:48;1.90;99.90
1704;DHT22;849;48.780;9.216;2024-01-15T05:03:32;1.80;99.90
1704;DHT22;849;48.780;9.216;2024-01-15T05:06:16;1.80;99.90
1704;DHT22;849;48.780;9.216;2024-01-15T05:09:01;1.70;99.90
1704;DHT22;849;48.780;9.216;2024-01-15T05:11:45;1.70;99.90
1704;DHT22;849;48.780;9.216;2024-01-15T05:14:29;1.70;99.90
1704;DHT22;849;48.780;9.216;2024-01-15T05:17:13;1.70;99.90
1704;DHT22;849;48.780;9.216;2024-01-15T05:19:58;1.80;99.90
1704;DHT22;849;48.780;9.216;2024-01-15T05:22:42;1.70;99.90
1704;DHT22;849;48.780;9.216;2024-01-15T05:25:26;1.70;99.90
1704;DHT22;849;48.780;9.216;2024-01-15T05:28:10;1.60;99.90
1704;DHT22;849;48.780;9.216;2024-01-15T05:30:55;1.70;99.90
1704;DHT22;849;48.780;9.216;2024-01-15T05:33:39;1.70;99.90
1704;DHT22;849;48.780;9.216;2024-01-15T05:36:24;1.70;99.90
1704;DHT22;849;48.780;9.216;2024-01-15T05:39:08;1.70;99.90
1704;DHT22;849;48.780;9.216;2024-01-15T05:41:52;1.60;99.90
1704;DHT22;849;48.780;9.216;2024-01-15T05:44:36;1.60;99.90
1704;DHT22;849;48.780;9.216;2024-01-15T05:47:20;1.80;99.90
1704;DHT22;849;48.780;9.216;2024-01-15T05:50:05;1.90;99.90
1704;DHT22;849;48.780;9.216;2024-01-15T05:52:49;2.00;99.90
1704;DHT22;849;48.780;9.216;2024-01-15T05:55:35;2.00;99.90
1704;DHT22;849;48.780;9.216;2024-01-15T05:58:19;2.10;99.90
1704;DHT22;849;48.780;9.216;2024-01-15T06:01:03;2.10;99.90
1704;DHT22;849;48.780;9.216;2024-01-15T06:03:47;2.10;99.90
1704;DHT22;849;48.780;9.216;2024-01-15T06:06:31;2.00;99.90
1704;DHT22;849;48.780;9.216;2024-01-15T06:09:16;1.90;99.90
1704;DHT22;849;48.780;9.216;2024-01-15T06:12:00;2.00;99.90
1704;DHT22;849;48.780;9.216;2024-01-15T06:14:44;2.10;99.90
1704;DHT22;849;48.780;9.216;2024-01-15T06:17:28;2.10;99.90
1704;DHT22;849;48.780;9.216;2024-01-15T06:20:12;2.10;99.90
1704;DHT22;849;48.780;9.216;2024-01-15T06:22:56;2.10;99.90
1704;DHT22;849;48.780;9.216;2024-01-15T06:25:40;2.00;99.90
1704;DHT22;849;48.780;9.216;2024-01-15T06:28:25;2.10;99.90
1704;DHT22;849;48.780;9.216;2024-01-15T06:31:09;2.00;99.90
1704;DHT22;849;48.780;9.216;2024-01-15T06:33:53;2.10;99.90
1704;DHT22;849;48.780;9.216;2024-01-15T06:36:37;2.00;99.90
1704;DHT22;849;48.780;9.216;2024-01-15T06:39:21;2.00;99.90
1704;DHT22;849;48.780;9.216;2024-01-15T06:42:06;2.10;99.90
1704;DHT22;849;48.780;9.216;2024-01-15T06:44:50;2.20;99.90
1704;DHT22;849;48.780;9.216;2024-01-15T06:47:34;2.20;99.90
1704;DHT22;849;48.780;9.216;2024-01-15T06:50:18;2.20;99.90
1704;DHT22;849;48.780;9.216;2024-01-15T06:53:02;2.20;99.90
1704;DHT22;849;48.780;9.216;2024-01-15T06:55:46;2.30;99.90
1704;DHT22;849;48.780;9.216;2024-01-15T06:58:31;2.20;99.90
1704;DHT22;849;48.780;9.216;2024-01-15T07:01:15;2.10;99.90
1704;DHT22;849;48.780;9.216;2024-01-15T07:03:59;2.00;99.90
1704;DHT22;849;48.780;9.216;2024-01-15T07:06:43;2.00;99.90
1704;DHT22;849;48.780;9.216;2024-01-15T07:09:27;2.20;99.90
1704;DHT22;849;48.780;9.216;2024-01-15T07:12:12;2.10;99.90
1704;DHT22;849;48.780;9.216;2024-01-15T07:14:56;2.10;99.90
1704;DHT22;849;48.780;9.216;2024-01-15T07:17:43;2.10;99.90
1704;DHT22;849;48.780;9.216;2024-01-15T07:20:27;1.90;99.90
1704;DHT22;849;48.780;9.216;2024-01-15T07:23:12;2.10;99.90
1704;DHT22;849;48.780;9.216;2024-01-15T07:25:56;2.10;99.90
1704;DHT22;849;48.780;9.216;2024-01-15T07:28:40;1.90;99.90
1704;DHT22;849;48.780;9.216;2024-01-15T07:31:24;2.00;99.90
1704;DHT22;849;48.780;9.216;2024-01-15T07:34:08;2.00;99.90
1704;DHT22;849;48.780;9.216;2024-01-15T07:36:53;2.00;99.90
1704;DHT22;849;48.780;9.216;2024-01-15T07:39:37;1.90;99.90
1704;DHT22;849;48.780;9.216;2024-01-15T07:42:21;2.00;99.90
1704;DHT22;849;48.780;9.216;2024-01-15T07:45:06;1.90;99.90
1704;DHT22;849;48.780;9.216;2024-01-15T07:47:50;1.80;99.90
1704;DHT22;849;48.780;9.216;2024-01-15T07:50:34;1.80;99.90
1704;DHT22;849;48.780;9.216;2024-01-15T07:53:18;1.90;99.90
1704;DHT22;849;48.780;9.216;2024-01-15T07:56:02;1.90;99.90
1704;DHT22;849;48.780;9.216;2024-01-15T07:58:46;1.90;99.70
1704;DHT22;849;48.780;9.216;2024-01-15T08:01:31;1.90;99.50
1704;DHT22;849;48.780;9.216;2024-01-15T08:04:15;2.00;99.40
1704;DHT22;849;48.780;9.216;2024-01-15T08:06:59;1.90;99.10
1704;DHT22;849;48.780;9.216;2024-01-15T08:09:43;1.90;98.70
1704;DHT22;849;48.780;9.216;2024-01-15T08:12:27;1.90;98.80
1704;DHT22;849;48.780;9.216;2024-01-15T08:15:12;2.00;98.90
1704;DHT22;849;48.780;9.216;2024-01-15T08:17:56;2.30;99.40
1704;DHT22;849;48.780;9.216;2024-01-15T08:20:40;2.10;98.40
1704;DHT22;849;48.780;9.216;2024-01-15T08:23:24;2.10;98.10
1704;DHT22;849;48.780;9.216;2024-01-15T08:26:08;2.10;97.90
1704;DHT22;849;48.780;9.216;2024-01-15T08:28:53;2.20;97.90
1704;DHT22;849;48.780;9.216;2024-01-15T08:31:37;2.20;97.40
1704;DHT22;849;48.780;9.216;2024-01-15T08:34:21;2.20;97.00
1704;DHT22;849;48.780;9.216;2024-01-15T08:37:05;2.10;97.00
1704;DHT22;849;48.780;9.216;2024-01-15T08:39:49;2.10;96.80
1704;DHT22;849;48.780;9.216;2024-01-15T08:42:33;2.10;96.60
1704;DHT22;849;48.780;9.216;2024-01-15T08:45:18;2.20;96.50
1704;DHT22;849;48.780;9.216;2024-01-15T08:48:02;2.20;96.60
1704;DHT22;849;48.780;9.216;2024-01-15T08:50:47;2.20;96.40
1704;DHT22;849;48.780;9.216;2024-01-15T08:53:31;2.20;96.20
1704;DHT22;849;48.780;9.216;2024-01-15T08:56:16;2.30;96.60
1704;DHT22;849;48.780;9.216;2024-01-15T08:59:00;2.30;95.90
1704;DHT22;849;48.780;9.216;2024-01-15T09:01:45;2.40;96.00
1704;DHT22;849;48.780;9.216;2024-01-15T09:04:29;2.40;95.60
1704;DHT22;849;48.780;9.216;2024-01-15T09:07:13;2.60;95.50
1704;DHT22;849;48.780;9.216;2024-01-15T09:09:58;2.60;94.70
1704;DHT22;849;48.780;9.216;2024-01-15T09:12:43;2.70;94.90
1704;DHT22;849;48.780;9.216;2024-01-15T09:15:27;2.80;94.20
1704;DHT22;849;48.780;9.216;2024-01-15T09:18:11;2.80;94.10
1704;DHT22;849;48.780;9.216;2024-01-15T09:20:55;2.90;93.70
1704;DHT22;849;48.780;9.216;2024-01-15T09:23:40;2.90;93.20
1704;DHT22;849;48.780;9.216;2024-01-15T09:26:24;3.00;92.70
1704;DHT22;849;48.780;9.216;2024-01-15T09:29:08;3.00;93.10
1704;DHT22;849;48.780;9.216;2024-01-15T09:31:54;3.10;92.00
1704;DHT22;849;48.780;9.216;2024-01-15T09:34:38;3.00;92.30
1704;DHT22;849;48.780;9.216;2024-01-15T09:37:22;3.00;91.60
1704;DHT22;849;48.780;9.216;2024-01-15T09:40:07;3.00;92.30
1704;DHT22;849;48.780;9.216;2024-01-15T09:42:52;3.10;91.50
1704;DHT22;849;48.780;9.216;2024-01-15T09:45:36;3.10;91.40
1704;DHT22;849;48.780;9.216;2024-01-15T09:48:20;3.00;90.90
1704;DHT22;849;48.780;9.216;2024-01-15T09:51:05;3.00;91.40
1704;DHT22;849;48.780;9.216;2024-01-15T09:53:50;3.30;91.60
1704;DHT22;849;48.780;9.216;2024-01-15T09:56:34;3.10;91.30
1704;DHT22;849;48.780;9.216;2024-01-15T09:59:19;3.00;91.00
1704;DHT22;849;48.780;9.216;2024-01-15T10:02:03;3.00;91.50
1704;DHT22;849;48.780;9.216;2024-01-15T10:04:47;3.00;91.60
1704;DHT22;849;48.780;9.216;2024-01-15T10:07:32;3.10;91.40
1704;DHT22;849;48.780;9.216;2024-01-15T10:10:18;3.10;91.70
1704;DHT22;849;48.780;9.216;2024-01-15T10:13:03;3.30;91.80
1704;DHT22;849;48.780;9.216;2024-01-15T10:15:48;3.30;91.00
1704;DHT22;849;48.780;9.216;2024-01-15T10:18:32;3.20;90.90
1704;DHT22;849;48.780;9.216;2024-01-15T10:21:16;3.10;91.20
1704;DHT22;849;48.780;9.216;2024-01-15T10:24:01;3.20;91.30
1704;DHT22;849;48.780;9.216;2024-01-15T10:26:46;3.20;91.30
1704;DHT22;849;48.780;9.216;2024-01-15T10:29:30;3.20;90.70
1704;DHT22;849;48.780;9.216;2024-01-15T10:32:14;3.20;91.30
1704;DHT22;849;48.780;9.216;2024-01-15T10:34:59;3.20;91.10
1704;DHT22;849;48.780;9.216;2024-01-15T10:37:43;3.30;91.40
1704;DHT22;849;48.780;9.216;2024-01-15T10:40:27;3.40;90.60
1704;DHT22;849;48.780;9.216;2024-01-15T10:43:12;3.40;90.30
1704;DHT22;849;48.780;9.216;2024-01-15T10:45:56;3.40;90.60
1704;DHT22;849;48.780;9.216;2024-01-15T10:48:40;3.30;90.40
1704;DHT22;849;48.780;9.216;2024-01-15T10:51:25;3.30;91.00
1704;DHT22;849;48.780;9.216;2024-01-15T10:54:09;3.20;90.90
1704;DHT22;849;48.780;9.216;2024-01-15T10:56:55;3.20;90.90
1704;DHT22;849;48.780;9.216;2024-01-15T10:59:40;3.20;91.20
1704;DHT22;849;48.780;9.216;2024-01-15T11:02:24;3.30;91.50
1704;DHT22;849;48.780;9.216;2024-01-15T11:05:09;3.40;91.70
1704;DHT22;849;48.780;9.216;2024-01-15T11:07:58;3.40;90.90
1704;DHT22;849;48.780;9.216;2024-01-15T11:10:47;3.40;91.60
1704;DHT22;849;48.780;9.216;2024-01-15T11:16:17;3.40;91.70
1704;DHT22;849;48.780;9.216;2024-01-15T11:19:02;3.40;92.60
1704;DHT22;849;48.780;9.216;2024-01-15T11:21:47;3.40;93.00
1704;DHT22;849;48.780;9.216;2024-01-15T11:24:35;3.50;92.70
1704;DHT22;849;48.780;9.216;2024-01-15T11:27:39;3.50;93.80
1704;DHT22;849;48.780;9.216;2024-01-15T11:30:24;3.40;95.40
1704;DHT22;849;48.780;9.216;2024-01-15T11:33:31;3.30;96.30
1704;DHT22;849;48.780;9.216;2024-01-15T11:36:13;3.20;97.20
1704;DHT22;849;48.780;9.216;2024-01-15T11:38:57;3.30;97.20
1704;DHT22;849;48.780;9.216;2024-01-15T11:41:42;3.30;97.10
1704;DHT22;849;48.780;9.216;2024-01-15T11:44:26;3.30;98.10
1704;DHT22;849;48.780;9.216;2024-01-15T11:47:11;3.20;98.30
1704;DHT22;849;48.780;9.216;2024-01-15T11:49:59;3.20;99.10
1704;DHT22;849;48.780;9.216;2024-01-15T11:52:46;3.10;99.90
1704;DHT22;849;48.780;9.216;2024-01-15T11:55:34;3.00;99.90
1704;DHT22;849;48.780;9.216;2024-01-15T11:58:19;2.90;99.90
1704;DHT22;849;48.780;9.216;2024-01-15T12:01:04;2.90;99.90
1704;DHT22;849;48.780;9.216;2024-01-15T12:03:48;3.00;99.90
1704;DHT22;849;48.780;9.216;2024-01-15T12:06:33;3.00;99.90
1704;DHT22;849;48.780;9.216;2024-01-15T12:09:21;2.90;99.90
1704;DHT22;849;48.780;9.216;2024-01-15T12:12:07;3.00;99.90
1704;DHT22;849;48.780;9.216;2024-01-15T12:14:55;3.00;99.90
1704;DHT22;849;48.780;9.216;2024-01-15T12:17:39;3.00;99.90
1704;DHT22;849;48.780;9.216;2024-01-15T12:20:24;3.00;99.90
1704;DHT22;849;48.780;9.216;2024-01-15T12:23:08;3.10;99.90
1704;DHT22;849;48.780;9.216;2024-01-15T12:25:52;3.00;99.90
1704;DHT22;849;48.780;9.216;2024-01-15T12:28:36;3.10;99.90
1704;DHT22;849;48.780;9.216;2024-01-15T12:31:20;3.10;99.90
1704;DHT22;849;48.780;9.216;2024-01-15T12:34:05;2.90;99.90
1704;DHT22;849;48.780;9.216;2024-01-15T12:36:49;2.80;99.90
1704;DHT22;849;48.780;9.216;2024-01-15T12:39:34;2.70;99.90
1704;DHT22;849;48.780;9.216;2024-01-15T12:42:18;2.60;99.90
1704;DHT22;849;48.780;9.216;2024-01-15T12:45:03;2.70;99.90
1704;DHT22;849;48.780;9.216;2024-01-15T12:47:48;2.70;99.90
1704;DHT22;849;48.780;9.216;2024-01-15T12:50:35;2.70;99.90
1704;DHT22;849;48.780;9.216;2024-01-15T12:53:19;2.60;99.90
1704;DHT22;849;48.780;9.216;2024-01-15T12:56:04;2.40;99.90
1704;DHT22;849;48.780;9.216;2024-01-15T12:58:48;2.40;99.90
1704;DHT22;849;48.780;9.216;2024-01-15T13:01:32;2.40;99.90
1704;DHT22;849;48.780;9.216;2024-01-15T13:04:23;2.50;99.90
1704;DHT22;849;48.780;9.216;2024-01-15T13:07:07;2.50;99.90
1704;DHT22;849;48.780;9.216;2024-01-15T13:09:51;2.50;99.90
1704;DHT22;849;48.780;9.216;2024-01-15T13:12:37;2.40;99.90
1704;DHT22;849;48.780;9.216;2024-01-15T13:15:22;2.40;99.90
1704;DHT22;849;48.780;9.216;2024-01-15T13:18:06;2.40;99.90
1704;DHT22;849;48.780;9.216;2024-01-15T13:20:50;2.50;99.90
1704;DHT22;849;48.780;9.216;2024-01-15T13:23:34;2.60;99.90
1704;DHT22;849;48.780;9.216;2024-01-15T13:26:19;2.60;99.90
1704;DHT22;849;48.780;9.216;2024-01-15T13:29:04;2.70;99.90
1704;DHT22;849;48.780;9.216;2024-01-15T13:31:48;2.70;99.90
1704;DHT22;849;48.780;9.216;2024-01-15T13:34:32;2.70;99.90
1704;DHT22;849;48.780;9.216;2024-01-15T13:37:16;2.70;99.90
1704;DHT22;849;48.780;9.216;2024-01-15T13:40:01;2.70;99.90
1704;DHT22;849;48.780;9.216;2024-01-15T13:42:45;3.00;99.90
1704;DHT22;849;48.780;9.216;2024-01-15T13:45:29;2.80;99.90
1704;DHT22;849;48.780;9.216;2024-01-15T13:48:14;2.90;99.90
1704;DHT22;849;48.780;9.216;2024-01-15T13:50:58;2.90;99.90
1704;DHT22;849;48.780;9.216;2024-01-15T13:53:43;2.90;99.90
1704;DHT22;849;48.780;9.216;2024-01-15T13:56:27;2.90;99.90
1704;DHT22;849;48.780;9.216;2024-01-15T13:59:15;2.90;99.90
1704;DHT22;849;48.780;9.216;2024-01-15T14:02:00;2.90;99.90
1704;DHT22;849;48.780;9.216;2024-01-15T14:04:44;2.90;99.90
1704;DHT22;849;48.780;9.216;2024-01-15T14:07:28;3.00;99.90
1704;DHT22;849;48.780;9.216;2024-01-15T14:10:12;3.00;99.90
1704;DHT22;849;48.780;9.216;2024-01-15T14:12:56;3.00;99.90
1704;DHT22;849;48.780;9.216;2024-01-15T14:15:41;3.00;99.90
1704;DHT22;849;48.780;9.216;2024-01-15T14:18:25;3.00;99.90
1704;DHT22;849;48.780;9.216;2024-01-15T14:21:10;3.10;99.90
1704;DHT22;849;48.780;9.216;2024-01-15T14:23:54;3.10;99.90
1704;DHT22;849;48.780;9.216;2024-01-15T14:26:39;3.10;99.90
1704;DHT22;849;48.780;9.216;2024-01-15T14:29:23;3.10;99.90
1704;DHT22;849;48.780;9.216;2024-01-15T14:32:10;3.00;99.90
1704;DHT22;849;48.780;9.216;2024-01-15T14:34:55;3.00;99.90
1704;DHT22;849;48.780;9.216;2024-01-15T14:37:40;3.00;99.90
1704;DHT22;849;48.780;9.216;2024-01-15T14:40:25;3.00;99.90
1704;DHT22;849;48.780;9.216;2024-01-15T14:43:09;2.90;99.90
1704;DHT22;849;48.780;9.216;2024-01-15T14:45:53;2.80;99.90
1704;DHT22;849;48.780;9.216;2024-01-15T14:48:37;2.70;99.90
1704;DHT22;849;48.780;9.216;2024-01-15T14:51:21;2.60;99.90
1704;DHT22;849;48.780;9.216;2024-01-15T14:54:06;2.60;99.90
1704;DHT22;849;48.780;9.216;2024-01-15T14:56:50;2.70;99.90
1704;DHT22;849;48.780;9.216;2024-01-15T14:59:34;2.50;99.90
1704;DHT22;849;48.780;9.216;2024-01-15T15:02:19;2.30;99.90
1704;DHT22;849;48.780;9.216;2024-01-15T15:05:03;2.10;99.90
1704;DHT22;849;48.780;9.216;2024-01-15T15:07:47;2.10;99.90
1704;DHT22;849;48.780;9.216;2024-01-15T15:10:32;2.10;99.90
1704;DHT22;849;48.780;9.216;2024-01-15T15:13:16;2.10;99.90
1704;DHT22;849;48.780;9.216;2024-01-15T15:16:00;2.20;99.90
1704;DHT22;849;48.780;9.216;2024-01-15T15:18:44;2.20;99.90
1704;DHT22;849;48.780;9.216;2024-01-15T15:21:30;2.20;99.90
1704;DHT22;849;48.780;9.216;2024-01-15T15:24:14;2.40;99.90
1704;DHT22;849;48.780;9.216;2024-01-15T15:26:58;2.40;99.90
1704;DHT22;849;48.780;9.216;2024-01-15T15:29:42;2.40;99.90
1704;DHT22;849;48.780;9.216;2024-01-15T15:32:26;2.40;99.90
1704;DHT22;849;48.780;9.216;2024-01-15T15:35:10;2.50;99.90
1704;DHT22;849;48.780;9.216;2024-01-15T15:37:54;2.30;99.90
1704;DHT22;849;48.780;9.216;2024-01-15T15:40:39;2.30;99.90
1704;DHT22;849;48.780;9.216;2024-01-15T15:43:23;2.40;99.90
1704;DHT22;849;48.780;9.216;2024-01-15T15:46:07;2.30;99.90
1704;DHT22;849;48.780;9.216;2024-01-15T15:48:52;2.40;99.90
1704;DHT22;849;48.780;9.216;2024-01-15T15:51:36;2.40;99.90
1704;DHT22;849;48.780;9.216;2024-01-15T15:54:20;2.50;99.90
1704;DHT22;849;48.780;9.216;2024-01-15T15:57:04;2.60;99.90
1704;DHT22;849;48.780;9.216;2024-01-15T15:59:49;2.60;99.90
1704;DHT22;849;48.780;9.216;2024-01-15T16:02:33;2.60;99.90
1704;DHT22;849;48.780;9.216;2024-01-15T16:05:17;2.60;99.90
1704;DHT22;849;48.780;9.216;2024-01-15T16:08:01;2.70;99.90
1704;DHT22;849;48.780;9.216;2024-01-15T16:10:46;2.60;99.90
1704;DHT22;849;48.780;9.216;2024-01-15T16:13:32;2.60;99.90
1704;DHT22;849;48.780;9.216;2024-01-15T16:16:16;2.60;99.90
1704;DHT22;849;48.780;9.216;2024-01-15T16:19:01;2.60;99.90
1704;DHT22;849;48.780;9.216;2024-01-15T16:21:45;2.60;99.90
1704;DHT22;849;48.780;9.216;2024-01-15T16:24:29;2.60;99.90
1704;DHT22;849;48.780;9.216;2024-01-15T16:27:13;2.60;99.90
1704;DHT22;849;48.780;9.216;2024-01-15T16:29:57;2.60;99.90
1704;DHT22;849;48.780;9.216;2024-01-15T16:32:42;2.60;99.90
1704;DHT22;849;48.780;9.216;2024-01-15T16:35:26;2.60;99.90
1704;DHT22;849;48.780;9.216;2024-01-15T16:38:10;2.60;99.90
1704;DHT22;849;48.780;9.216;2024-01-15T16:40:55;2.60;99.90
1704;DHT22;849;48.780;9.216;2024-01-15T16:43:39;2.50;99.90
1704;DHT22;849;48.780;9.216;2024-01-15T16:46:24;2.50;99.90
1704;DHT22;849;48.780;9.216;2024-01-15T16:49:08;2.50;99.90
1704;DHT22;849;48.780;9.216;2024-01-15T16:51:54;2.50;99.90
1704;DHT22;849;48.780;9.216;2024-01-15T16:54:38;2.40;99.90
1704;DHT22;849;48.780;9.216;2024-01-15T16:57:22;2.40;99.90
1704;DHT22;849;48.780;9.216;2024-01-15T17:00:07;2.40;99.90
1704;DHT22;849;48.780;9.216;2024-01-15T17:02:51;2.40;99.90
1704;DHT22;849;48.780;9.216;2024-01-15T17:05:36;2.50;99.90
1704;DHT22;849;48.780;9.216;2024-01-15T17:08:20;2.50;99.90
1704;DHT22;849;48.780;9.216;2024-01-15T17:11:04;2.50;99.90
1704;DHT22;849;48.780;9.216;2024-01-15T17:13:49;2.60;99.90
1704;DHT22;849;48.780;9.216;2024-01-15T17:16:33;2.60;99.90
1704;DHT22;849;48.780;9.216;2024-01-15T17:19:17;2.50;99.90
1704;DHT22;849;48.780;9.216;2024-01-15T17:22:02;2.50;99.90
1704;DHT22;849;48.780;9.216;2024-01-15T17:24:46;2.50;99.90
1704;DHT22;849;48.780;9.216;2024-01-15T17:27:30;2.50;99.90
1704;DHT22;849;48.780;9.216;2024-01-15T17:30:14;2.50;99.90
1704;DHT22;849;48.780;9.216;2024-01-15T17:32:58;2.50;99.90
1704;DHT22;849;48.780;9.216;2024-01-15T17:35:50;2.50;99.90
1704;DHT22;849;48.780;9.216;2024-01-15T17:38:34;2.50;99.90
1704;DHT22;849;48.780;9.216;2024-01-15T17:41:18;2.50;99.90
1704;DHT22;849;48.780;9.216;2024-01-15T17:44:04;2.50;99.90
1704;DHT22;849;48.780;9.216;2024-01-15T17:46:48;2.50;99.90
1704;DHT22;849;48.780;9.216;2024-01-15T17:49:32;2.40;99.90
1704;DHT22;849;48.780;9.216;2024-01-15T17:52:16;2.40;99.90
1704;DHT22;849;48.780;9.216;2024-01-15T17:55:01;2.40;99.90
1704;DHT22;849;48.780;9.216;2024-01-15T17:57:45;2.40;99.90
1704;DHT22;849;48.780;9.216;2024-01-15T18:00:29;2.30;99.90
1704;DHT22;849;48.780;9.216;2024-01-15T18:03:14;2.40;99.90
1704;DHT22;849;48.780;9.216;2024-01-15T18:05:58;2.30;99.90
1704;DHT22;849;48.780;9.216;2024-01-15T18:08:42;2.30;99.90
1704;DHT22;849;48.780;9.216;2024-01-15T18:11:27;2.30;99.90
1704;DHT22;849;48.780;9.216;2024-01-15T18:14:11;2.30;99.90
1704;DHT22;849;48.780;9.216;2024-01-15T18:16:56;2.20;99.90
1704;DHT22;849;48.780;9.216;2024-01-15T18:19:40;2.10;99.90
1704;DHT22;849;48.780;9.216;2024-01-15T18:22:25;2.10;99.90
1704;DHT22;849;48.780;9.216;2024-01-15T18:25:09;2.10;99.90
1704;DHT22;849;48.780;9.216;2024-01-15T18:27:53;2.10;99.90
1704;DHT22;849;48.780;9.216;2024-01-15T18:30:37;2.10;99.90
1704;DHT22;849;48.780;9.216;2024-01-15T18:33:22;2.10;99.90
1704;DHT22;849;48.780;9.216;2024-01-15T18:36:06;2.10;99.90
1704;DHT22;849;48.780;9.216;2024-01-15T18:38:50;2.00;99.90
1704;DHT22;849;48.780;9.216;2024-01-15T18:41:34;2.00;99.90
1704;DHT22;849;48.780;9.216;2024-01-15T18:44:20;1.90;99.90
1704;DHT22;849;48.780;9.216;2024-01-15T18:47:05;1.90;99.90
1704;DHT22;849;48.780;9.216;2024-01-15T18:49:49;2.00;99.90
1704;DHT22;849;48.780;9.216;2024-01-15T18:52:34;2.00;99.90
1704;DHT22;849;48.780;9.216;2024-01-15T18:55:19;2.00;99.90
1704;DHT22;849;48.780;9.216;2024-01-15T18:58:05;2.00;99.90
1704;DHT22;849;48.780;9.216;2024-01-15T19:00:49;2.00;99.90
1704;DHT22;849;48.780;9.216;2024-01-15T19:03:34;2.00;99.90
1704;DHT22;849;48.780;9.216;2024-01-15T19:06:18;2.00;99.90
1704;DHT22;849;48.780;9.216;2024-01-15T19:09:02;2.00;99.90
1704;DHT22;849;48.780;9.216;2024-01-15T19:11:47;2.10;99.90
1704;DHT22;849;48.780;9.216;2024-01-15T19:14:31;2.00;99.90
1704;DHT22;849;48.780;9.216;2024-01-15T19:17:15;2.00;99.90
1704;DHT22;849;48.780;9.216;2024-01-15T19:20:00;2.00;99.90
1704;DHT22;849;48.780;9.216;2024-01-15T19:22:45;1.90;99.90
1704;DHT22;849;48.780;9.216;2024-01-15T19:25:29;1.80;99.90
1704;DHT22;849;48.780;9.216;2024-01-15T19:28:13;1.90;99.90
1704;DHT22;849;48.780;9.216;2024-01-15T19:31:00;1.90;99.90
1704;DHT22;849;48.780;9.216;2024-01-15T19:33:45;2.20;99.90
1704;DHT22;849;48.780;9.216;2024-01-15T19:36:29;2.00;99.90
1704;DHT22;849;48.780;9.216;2024-01-15T19:39:13;2.00;99.90